createdAt,value
2017-12-20T00:01:27.081Z,5.10
2017-12-20T00:03:54.928Z,4.90
2017-12-20T00:06:22.005Z,4.90
2017-12-20T00:08:49.088Z,4.90
2017-12-20T00:11:16.152Z,4.90
2017-12-20T00:13:43.252Z,5.00
2017-12-20T00:16:11.083Z,4.90
2017-12-20T00:18:38.265Z,4.90
2017-12-20T00:21:05.382Z,5.00
2017-12-20T00:23:32.479Z,4.90
2017-12-20T00:25:59.567Z,4.90
2017-12-20T00:28:26.656Z,4.80
2017-12-20T00:30:53.731Z,4.80
2017-12-20T00:33:20.814Z,4.70
2017-12-20T00:35:47.898Z,4.60
2017-12-20T00:38:15.027Z,4.40
2017-12-20T00:40:42.086Z,4.50
2017-12-20T00:43:09.146Z,4.50
2017-12-20T00:45:36.231Z,4.50
2017-12-20T00:48:03.304Z,4.50
2017-12-20T00:50:30.391Z,4.50
2017-12-20T00:52:57.520Z,4.50
2017-12-20T00:55:24.595Z,4.40
2017-12-20T00:57:51.716Z,4.40
2017-12-20T01:00:18.787Z,4.40
2017-12-20T01:02:45.853Z,4.30
2017-12-20T01:05:13.819Z,4.30
2017-12-20T01:07:40.874Z,4.30
2017-12-20T01:10:07.976Z,4.20
2017-12-20T01:12:35.060Z,4.20
2017-12-20T01:15:02.950Z,4.10
2017-12-20T01:17:30.041Z,4.10
2017-12-20T01:19:57.115Z,4.10
2017-12-20T01:23:19.538Z,4.00
2017-12-20T01:25:46.702Z,4.00
2017-12-20T01:28:13.755Z,4.10
2017-12-20T01:30:40.810Z,4.10
2017-12-20T01:33:07.866Z,4.20
2017-12-20T01:35:34.902Z,4.40
2017-12-20T01:38:01.993Z,4.50
2017-12-20T01:40:29.070Z,4.70
2017-12-20T01:42:56.129Z,4.70
2017-12-20T01:45:23.198Z,4.70
2017-12-20T01:47:50.279Z,4.80
2017-12-20T01:50:17.337Z,4.90
2017-12-20T01:52:44.393Z,5.00
2017-12-20T01:55:11.754Z,4.90
2017-12-20T01:57:38.822Z,5.00
2017-12-20T02:00:06.634Z,4.80
2017-12-20T02:02:33.690Z,4.80
2017-12-20T02:05:00.796Z,4.70
2017-12-20T02:07:27.902Z,4.70
2017-12-20T02:09:54.948Z,4.60
2017-12-20T02:12:22.015Z,4.50
2017-12-20T02:14:49.114Z,4.50
2017-12-20T02:17:16.183Z,4.50
2017-12-20T02:19:43.313Z,4.50
2017-12-20T02:22:10.383Z,4.50
2017-12-20T02:24:38.199Z,4.60
2017-12-20T02:27:05.254Z,4.60
2017-12-20T02:29:32.348Z,4.60
2017-12-20T02:32:00.171Z,4.50
2017-12-20T02:34:27.228Z,4.50
2017-12-20T02:36:54.287Z,4.50
2017-12-20T02:39:21.384Z,4.50
2017-12-20T02:41:48.431Z,4.50
2017-12-20T02:44:15.492Z,4.40
2017-12-20T02:46:42.568Z,4.30
2017-12-20T02:49:10.431Z,4.30
2017-12-20T02:51:37.500Z,4.30
2017-12-20T02:54:04.548Z,4.40
2017-12-20T02:56:31.622Z,4.40
2017-12-20T02:58:58.669Z,4.40
2017-12-20T03:01:25.713Z,4.50
2017-12-20T03:03:52.775Z,4.50
2017-12-20T03:06:19.815Z,4.50
2017-12-20T03:08:46.868Z,4.40
2017-12-20T03:11:13.939Z,4.30
2017-12-20T03:13:41.061Z,4.30
2017-12-20T03:16:08.114Z,4.30
2017-12-20T03:18:35.284Z,4.40
2017-12-20T03:21:02.353Z,4.30
2017-12-20T03:23:29.399Z,4.30
2017-12-20T03:25:56.483Z,4.20
2017-12-20T03:28:24.303Z,4.20
2017-12-20T03:30:51.403Z,4.20
2017-12-20T03:33:19.256Z,4.30
2017-12-20T03:35:46.371Z,4.30
2017-12-20T03:38:13.455Z,4.30
2017-12-20T03:40:40.538Z,4.40
2017-12-20T03:43:07.584Z,4.50
2017-12-20T03:45:34.640Z,4.40
2017-12-20T03:48:01.708Z,4.30
2017-12-20T03:50:28.780Z,4.30
2017-12-20T03:52:55.859Z,4.30
2017-12-20T03:55:23.669Z,4.30
2017-12-20T03:57:50.726Z,4.30
2017-12-20T04:00:17.795Z,4.20
2017-12-20T04:02:44.882Z,4.20
2017-12-20T04:05:12.698Z,4.10
2017-12-20T04:07:39.769Z,4.10
2017-12-20T04:10:06.867Z,4.10
2017-12-20T04:12:33.926Z,4.10
2017-12-20T04:15:00.996Z,4.10
2017-12-20T04:17:28.044Z,4.10
2017-12-20T04:19:55.156Z,4.10
2017-12-20T04:22:22.202Z,4.10
2017-12-20T04:24:49.271Z,4.10
2017-12-20T04:27:16.334Z,4.10
2017-12-20T04:29:43.447Z,4.00
2017-12-20T04:32:10.495Z,3.90
2017-12-20T04:34:37.670Z,3.90
2017-12-20T04:37:04.727Z,4.00
2017-12-20T04:39:31.802Z,4.10
2017-12-20T04:41:58.885Z,4.10
2017-12-20T04:44:26.715Z,4.00
2017-12-20T04:46:53.780Z,4.10
2017-12-20T04:49:20.837Z,4.20
2017-12-20T04:51:48.678Z,4.10
2017-12-20T04:54:15.727Z,4.10
2017-12-20T04:56:42.812Z,4.20
2017-12-20T04:59:10.631Z,4.20
2017-12-20T05:01:37.707Z,4.10
2017-12-20T05:04:05.526Z,4.20
2017-12-20T05:06:32.863Z,4.20
2017-12-20T05:08:59.940Z,4.20
2017-12-20T05:11:27.008Z,4.30
2017-12-20T05:13:54.112Z,4.30
2017-12-20T05:16:21.159Z,4.30
2017-12-20T05:18:48.206Z,4.30
2017-12-20T05:21:15.255Z,4.40
2017-12-20T05:23:42.334Z,4.50
2017-12-20T05:26:09.403Z,4.40
2017-12-20T05:28:36.487Z,4.40
2017-12-20T05:31:04.316Z,4.40
2017-12-20T05:33:31.406Z,4.40
2017-12-20T05:35:58.463Z,4.50
2017-12-20T05:38:25.516Z,4.60
2017-12-20T05:40:52.570Z,4.50
2017-12-20T05:43:19.625Z,4.50
2017-12-20T05:45:46.695Z,4.50
2017-12-20T05:48:13.774Z,4.40
2017-12-20T05:50:41.133Z,4.20
2017-12-20T05:53:08.955Z,4.00
2017-12-20T05:55:36.007Z,4.00
2017-12-20T05:58:03.823Z,4.20
2017-12-20T06:00:30.886Z,4.20
2017-12-20T06:02:57.945Z,4.30
2017-12-20T06:05:25.043Z,4.40
2017-12-20T06:07:52.126Z,4.40
2017-12-20T06:10:19.977Z,4.30
2017-12-20T06:12:47.808Z,4.30
2017-12-20T06:15:14.857Z,4.30
2017-12-20T06:17:41.923Z,4.40
2017-12-20T06:20:08.987Z,4.40
2017-12-20T06:22:36.042Z,4.40
2017-12-20T06:25:03.903Z,4.30
2017-12-20T06:27:31.760Z,4.30
2017-12-20T06:29:59.607Z,4.30
2017-12-20T06:32:26.695Z,4.30
2017-12-20T06:34:54.532Z,4.30
2017-12-20T06:37:21.633Z,4.30
2017-12-20T06:39:48.697Z,4.30
2017-12-20T06:42:15.810Z,4.30
2017-12-20T06:44:42.870Z,4.10
2017-12-20T06:47:10.006Z,4.00
2017-12-20T06:49:37.819Z,3.90
2017-12-20T06:52:04.907Z,3.90
2017-12-20T06:54:31.970Z,3.90
2017-12-20T06:56:59.786Z,3.90
2017-12-20T06:59:26.846Z,3.90
2017-12-20T07:01:53.908Z,3.90
2017-12-20T07:04:20.958Z,4.00
2017-12-20T07:06:48.091Z,4.00
2017-12-20T07:09:15.196Z,3.90
2017-12-20T07:11:42.242Z,3.90
2017-12-20T07:14:09.296Z,3.80
2017-12-20T07:16:36.345Z,3.80
2017-12-20T07:19:03.402Z,3.90
2017-12-20T07:21:30.469Z,4.00
2017-12-20T07:23:57.547Z,4.10
2017-12-20T07:26:24.599Z,4.00
2017-12-20T07:28:51.699Z,4.00
2017-12-20T07:31:18.845Z,4.00
2017-12-20T07:33:45.911Z,3.90
2017-12-20T07:36:12.970Z,3.90
2017-12-20T07:38:40.187Z,4.00
2017-12-20T07:41:07.240Z,4.10
2017-12-20T07:43:34.320Z,4.10
2017-12-20T07:46:01.407Z,4.10
2017-12-20T07:48:29.225Z,4.10
2017-12-20T07:50:56.326Z,4.10
2017-12-20T07:53:24.425Z,4.30
2017-12-20T07:55:51.521Z,4.20
2017-12-20T07:58:18.871Z,4.30
2017-12-20T08:00:45.984Z,4.30
2017-12-20T08:03:13.102Z,4.40
2017-12-20T08:05:40.232Z,4.40
2017-12-20T08:08:07.304Z,4.60
2017-12-20T08:10:35.138Z,4.50
2017-12-20T08:13:02.999Z,4.40
2017-12-20T08:15:30.076Z,4.40
2017-12-20T08:17:57.971Z,4.50
2017-12-20T08:20:25.063Z,4.50
2017-12-20T08:22:52.124Z,4.50
2017-12-20T08:25:19.176Z,4.40
2017-12-20T08:27:46.247Z,4.40
2017-12-20T08:30:14.065Z,4.50
2017-12-20T08:32:41.130Z,4.50
2017-12-20T08:35:08.212Z,4.50
2017-12-20T08:37:35.266Z,4.50
2017-12-20T08:40:02.550Z,4.50
2017-12-20T08:42:29.625Z,4.50
2017-12-20T08:44:56.703Z,4.70
2017-12-20T08:47:23.821Z,4.70
2017-12-20T08:49:50.899Z,4.70
2017-12-20T08:52:18.010Z,4.80
2017-12-20T08:54:45.022Z,4.90
2017-12-20T08:57:12.092Z,4.90
2017-12-20T08:59:39.168Z,5.10
2017-12-20T09:02:06.217Z,5.20
2017-12-20T09:04:34.048Z,5.00
2017-12-20T09:07:01.120Z,5.00
2017-12-20T09:09:28.182Z,4.90
2017-12-20T09:11:55.250Z,4.90
2017-12-20T09:14:22.308Z,4.90
2017-12-20T09:16:49.379Z,5.00
2017-12-20T09:19:17.207Z,5.20
2017-12-20T09:21:44.296Z,5.20
2017-12-20T09:24:11.359Z,5.20
2017-12-20T09:26:38.415Z,5.30
2017-12-20T09:29:05.502Z,5.40
2017-12-20T09:31:32.563Z,5.40
2017-12-20T09:34:00.009Z,5.40
2017-12-20T09:36:27.089Z,5.50
2017-12-20T09:38:54.156Z,5.50
2017-12-20T09:41:21.207Z,5.40
2017-12-20T09:43:48.287Z,5.40
2017-12-20T09:46:15.445Z,5.50
2017-12-20T09:48:42.517Z,5.50
2017-12-20T09:51:09.593Z,5.60
2017-12-20T09:53:36.650Z,5.70
2017-12-20T09:56:03.684Z,5.80
2017-12-20T09:58:31.192Z,5.70
2017-12-20T10:00:58.241Z,5.60
2017-12-20T10:03:25.290Z,5.70
2017-12-20T10:05:52.439Z,5.70
2017-12-20T10:08:19.500Z,5.70
2017-12-20T10:10:46.686Z,5.50
2017-12-20T10:13:14.488Z,5.70
2017-12-20T10:15:41.561Z,5.70
2017-12-20T10:18:08.617Z,5.70
2017-12-20T10:20:35.687Z,5.60
2017-12-20T10:23:03.511Z,5.60
2017-12-20T10:25:30.575Z,5.50
2017-12-20T10:27:57.645Z,5.60
2017-12-20T10:30:25.471Z,6.10
2017-12-20T10:32:53.287Z,6.20
2017-12-20T10:35:20.375Z,6.20
2017-12-20T10:37:47.465Z,6.30
2017-12-20T10:40:14.545Z,6.40
2017-12-20T10:42:42.358Z,6.30
2017-12-20T10:45:09.425Z,6.20
2017-12-20T10:47:36.463Z,6.10
2017-12-20T10:50:03.565Z,6.20
2017-12-20T10:52:30.623Z,6.20
2017-12-20T10:54:57.691Z,6.10
2017-12-20T10:57:24.758Z,6.10
2017-12-20T10:59:51.833Z,6.10
2017-12-20T11:02:18.900Z,6.10
2017-12-20T11:04:45.971Z,6.10
2017-12-20T11:07:13.051Z,6.20
2017-12-20T11:09:40.123Z,6.20
2017-12-20T11:12:07.176Z,6.20
2017-12-20T11:14:34.259Z,6.20
2017-12-20T11:17:01.327Z,6.20
2017-12-20T11:19:28.403Z,6.20
2017-12-20T11:21:55.451Z,6.00
2017-12-20T11:24:22.518Z,6.00
2017-12-20T11:26:49.590Z,6.00
2017-12-20T11:29:16.657Z,6.00
2017-12-20T11:31:43.821Z,6.10
2017-12-20T11:34:10.922Z,6.10
2017-12-20T11:36:37.965Z,6.30
2017-12-20T11:39:05.048Z,6.40
2017-12-20T11:41:32.099Z,6.40
2017-12-20T11:43:59.157Z,6.40
2017-12-20T11:46:26.220Z,6.40
2017-12-20T11:48:53.315Z,6.50
2017-12-20T11:51:21.159Z,6.60
2017-12-20T11:53:48.204Z,6.60
2017-12-20T11:56:15.267Z,6.50
2017-12-20T11:58:42.348Z,6.60
2017-12-20T12:01:09.505Z,6.60
2017-12-20T12:03:36.615Z,6.40
2017-12-20T12:06:03.673Z,6.40
2017-12-20T12:08:31.506Z,6.30
2017-12-20T12:10:58.568Z,6.30
2017-12-20T12:13:26.567Z,6.30
2017-12-20T12:15:53.632Z,6.30
2017-12-20T12:18:20.684Z,6.20
2017-12-20T12:20:47.732Z,6.00
2017-12-20T12:23:14.990Z,6.10
2017-12-20T12:25:42.052Z,6.00
2017-12-20T12:28:09.361Z,6.00
2017-12-20T12:30:37.187Z,5.90
2017-12-20T12:33:04.258Z,5.90
2017-12-20T12:35:31.317Z,5.90
2017-12-20T12:37:59.152Z,5.80
2017-12-20T12:40:26.206Z,5.80
2017-12-20T12:42:53.275Z,5.70
2017-12-20T12:53:38.777Z,5.30
2017-12-20T12:56:05.847Z,5.40
2017-12-20T12:58:32.915Z,5.50
2017-12-20T13:01:00.726Z,5.60
2017-12-20T13:03:27.792Z,5.60
2017-12-20T13:05:54.839Z,5.60
2017-12-20T13:08:21.900Z,5.70
2017-12-20T13:10:48.961Z,5.70
2017-12-20T13:13:16.831Z,5.50
2017-12-20T13:15:43.898Z,5.40
2017-12-20T13:18:11.722Z,5.50
2017-12-20T13:20:38.810Z,5.50
2017-12-20T13:23:06.636Z,5.50
2017-12-20T13:25:33.685Z,5.50
2017-12-20T13:28:01.532Z,5.50
2017-12-20T13:30:28.606Z,5.50
2017-12-20T13:32:55.704Z,5.50
2017-12-20T13:35:23.528Z,5.40
2017-12-20T13:37:50.600Z,5.40
2017-12-20T13:40:17.774Z,5.40
2017-12-20T13:42:44.870Z,5.40
2017-12-20T13:45:11.934Z,5.40
2017-12-20T13:47:39.766Z,5.30
2017-12-20T13:50:06.842Z,5.20
2017-12-20T13:52:33.893Z,5.20
2017-12-20T13:55:00.961Z,5.20
2017-12-20T13:57:28.050Z,5.20
2017-12-20T13:59:55.221Z,5.30
2017-12-20T14:02:22.415Z,5.30
2017-12-20T14:04:49.484Z,5.20
2017-12-20T14:07:16.588Z,5.30
2017-12-20T14:09:43.667Z,5.20
2017-12-20T14:12:11.522Z,5.00
2017-12-20T14:14:38.571Z,5.00
2017-12-20T14:17:05.618Z,5.00
2017-12-20T14:19:32.777Z,5.00
2017-12-20T14:21:59.867Z,4.90
2017-12-20T14:24:26.986Z,5.00
2017-12-20T14:26:54.801Z,4.90
2017-12-20T14:29:21.849Z,4.90
2017-12-20T14:31:48.923Z,4.80
2017-12-20T14:34:15.974Z,4.80
2017-12-20T14:36:43.035Z,4.90
2017-12-20T14:39:10.096Z,4.80
2017-12-20T14:41:38.200Z,4.70
2017-12-20T14:44:05.457Z,4.70
2017-12-20T14:46:32.510Z,4.70
2017-12-20T14:48:59.575Z,4.80
2017-12-20T14:51:26.642Z,4.90
2017-12-20T14:53:53.699Z,4.70
2017-12-20T14:56:20.751Z,4.70
2017-12-20T14:58:47.810Z,4.80
2017-12-20T15:01:14.877Z,4.80
2017-12-20T15:03:42.007Z,4.80
2017-12-20T15:06:09.835Z,4.80
2017-12-20T15:08:37.835Z,4.80
2017-12-20T15:11:04.949Z,4.80
2017-12-20T15:13:32.026Z,4.90
2017-12-20T15:15:59.893Z,4.80
2017-12-20T15:18:26.954Z,4.80
2017-12-20T15:20:54.774Z,4.80
2017-12-20T15:23:21.836Z,4.70
2017-12-20T15:25:48.896Z,4.80
2017-12-20T15:28:15.958Z,4.80
2017-12-20T15:30:43.015Z,4.80
2017-12-20T15:33:10.944Z,4.70
2017-12-20T15:35:38.023Z,4.70
2017-12-20T15:38:05.071Z,4.80
2017-12-20T15:40:32.914Z,4.90
2017-12-20T15:43:00.049Z,4.80
2017-12-20T15:45:27.083Z,4.90
2017-12-20T15:47:54.134Z,4.80
2017-12-20T15:50:21.271Z,4.80
2017-12-20T15:52:48.332Z,4.90
2017-12-20T15:55:15.403Z,4.80
2017-12-20T15:57:42.460Z,4.80
2017-12-20T16:00:09.528Z,4.70
2017-12-20T16:02:36.591Z,4.80
2017-12-20T16:05:03.675Z,4.80
2017-12-20T16:07:30.739Z,4.80
2017-12-20T16:09:57.953Z,4.90
2017-12-20T16:12:25.019Z,4.90
2017-12-20T16:14:52.134Z,5.00
2017-12-20T16:17:19.975Z,4.80
2017-12-20T16:19:47.030Z,4.80
2017-12-20T16:22:14.081Z,4.90
2017-12-20T16:24:41.153Z,4.90
2017-12-20T16:27:08.982Z,5.00
2017-12-20T16:29:36.043Z,5.00
2017-12-20T16:32:03.092Z,5.00
2017-12-20T16:34:30.189Z,5.00
2017-12-20T16:36:57.282Z,5.10
2017-12-20T16:39:24.368Z,5.20
2017-12-20T16:41:51.422Z,5.20
2017-12-20T16:44:18.461Z,5.30
2017-12-20T16:46:45.557Z,5.20
2017-12-20T16:49:12.671Z,5.20
2017-12-20T16:51:40.507Z,5.30
2017-12-20T16:54:07.578Z,5.30
2017-12-20T16:56:35.510Z,5.20
2017-12-20T16:59:02.563Z,5.20
2017-12-20T17:01:29.603Z,5.30
2017-12-20T17:03:57.043Z,5.30
2017-12-20T17:06:24.094Z,5.40
2017-12-20T17:08:51.163Z,5.20
2017-12-20T17:11:18.220Z,5.30
2017-12-20T17:13:45.278Z,5.30
2017-12-20T17:16:12.352Z,5.30
2017-12-20T17:18:39.390Z,5.40
2017-12-20T17:21:06.448Z,5.40
2017-12-20T17:23:33.515Z,5.40
2017-12-20T17:26:00.597Z,5.40
2017-12-20T17:28:27.645Z,5.40
2017-12-20T17:30:54.706Z,5.30
2017-12-20T17:33:21.805Z,5.40
2017-12-20T17:35:48.919Z,5.40
2017-12-20T17:38:15.971Z,5.40
2017-12-20T17:40:43.023Z,5.40
2017-12-20T17:43:10.084Z,5.30
2017-12-20T17:45:37.147Z,5.30
2017-12-20T17:48:04.211Z,5.30
2017-12-20T17:50:31.303Z,5.30
2017-12-20T17:52:58.423Z,5.30
2017-12-20T17:55:25.455Z,5.30
2017-12-20T17:57:52.524Z,5.30
2017-12-20T18:00:19.582Z,5.30
2017-12-20T18:02:46.654Z,5.30
2017-12-20T18:05:13.759Z,5.30
2017-12-20T18:07:40.873Z,5.40
2017-12-20T18:10:08.694Z,5.50
2017-12-20T18:12:35.794Z,5.50
2017-12-20T18:15:02.849Z,5.50
2017-12-20T18:17:29.899Z,5.60
2017-12-20T18:19:57.030Z,5.60
2017-12-20T18:22:24.856Z,5.60
2017-12-20T18:24:51.907Z,5.60
2017-12-20T18:27:18.962Z,5.60
2017-12-20T18:29:46.127Z,5.60
2017-12-20T18:32:13.934Z,5.60
2017-12-20T18:34:41.004Z,5.60
2017-12-20T18:37:08.057Z,5.60
2017-12-20T18:39:35.216Z,5.60
2017-12-20T18:42:02.280Z,5.70
2017-12-20T18:44:29.387Z,5.70
2017-12-20T18:46:56.433Z,5.80
2017-12-20T18:49:23.523Z,5.60
2017-12-20T18:51:50.584Z,5.60
2017-12-20T18:54:17.661Z,5.60
2017-12-20T18:56:44.723Z,5.50
2017-12-20T18:59:11.831Z,5.60
2017-12-20T19:01:38.927Z,5.50
2017-12-20T19:04:06.014Z,5.50
2017-12-20T19:06:33.123Z,5.60
2017-12-20T19:09:00.201Z,5.70
2017-12-20T19:11:27.391Z,5.70
2017-12-20T19:13:54.483Z,5.60
2017-12-20T19:16:21.653Z,5.60
2017-12-20T19:18:48.741Z,5.60
2017-12-20T19:21:16.576Z,5.70
2017-12-20T19:23:43.680Z,5.70
2017-12-20T19:26:10.739Z,5.80
2017-12-20T19:28:37.895Z,5.70
2017-12-20T19:31:04.947Z,5.80
2017-12-20T19:33:32.030Z,5.80
2017-12-20T19:35:59.098Z,5.80
2017-12-20T19:38:26.936Z,5.70
2017-12-20T19:40:53.995Z,5.70
2017-12-20T19:43:21.062Z,5.70
2017-12-20T19:45:48.895Z,5.60
2017-12-20T19:48:15.978Z,5.60
2017-12-20T19:50:43.819Z,5.70
2017-12-20T19:53:10.875Z,5.70
2017-12-20T19:55:37.976Z,5.60
2017-12-20T19:58:05.072Z,5.70
2017-12-20T20:00:32.138Z,5.70
2017-12-20T20:02:59.223Z,5.60
2017-12-20T20:05:26.284Z,5.60
2017-12-20T20:07:53.337Z,5.70
2017-12-20T20:10:20.392Z,5.70
2017-12-20T20:12:47.488Z,5.70
2017-12-20T20:15:15.344Z,5.60
2017-12-20T20:17:42.413Z,5.60
2017-12-20T20:20:10.248Z,5.60
2017-12-20T20:22:37.345Z,5.50
2017-12-20T20:25:04.434Z,5.60
2017-12-20T20:27:32.119Z,5.50
2017-12-20T20:29:59.179Z,5.60
2017-12-20T20:32:26.261Z,5.60
2017-12-20T20:34:53.352Z,5.50
2017-12-20T20:37:20.596Z,5.50
2017-12-20T20:39:47.681Z,5.50
2017-12-20T20:42:15.547Z,5.60
2017-12-20T20:44:43.378Z,5.50
2017-12-20T20:47:10.491Z,5.50
2017-12-20T20:49:37.571Z,5.60
2017-12-20T20:52:04.664Z,5.50
2017-12-20T20:54:32.084Z,5.50
2017-12-20T20:56:59.478Z,5.50
2017-12-20T20:59:26.556Z,5.50
2017-12-20T21:01:53.630Z,5.50
2017-12-20T21:04:20.692Z,5.50
2017-12-20T21:06:47.746Z,5.50
2017-12-20T21:09:14.810Z,5.60
2017-12-20T21:11:41.872Z,5.60
2017-12-20T21:14:09.721Z,5.60
2017-12-20T21:16:36.807Z,5.50
2017-12-20T21:19:03.879Z,5.60
2017-12-20T21:21:30.930Z,5.70
2017-12-20T21:23:58.210Z,5.50
2017-12-20T21:26:25.281Z,5.50
2017-12-20T21:28:53.109Z,5.50
2017-12-20T21:31:20.165Z,5.50
2017-12-20T21:33:47.213Z,5.60
2017-12-20T21:36:14.268Z,5.50
2017-12-20T21:38:41.322Z,5.60
2017-12-20T21:41:08.379Z,5.50
2017-12-20T21:43:35.507Z,5.60
2017-12-20T21:46:02.572Z,5.60
2017-12-20T21:48:29.614Z,5.60
2017-12-20T21:50:56.704Z,5.60
2017-12-20T21:53:23.753Z,5.60
2017-12-20T21:55:50.826Z,5.50
2017-12-20T21:58:17.883Z,5.50
2017-12-20T22:00:45.110Z,5.40
2017-12-20T22:03:12.194Z,5.30
2017-12-20T22:05:39.268Z,5.20
2017-12-20T22:08:07.103Z,5.30
2017-12-20T22:10:34.957Z,5.40
2017-12-20T22:13:02.014Z,5.30
2017-12-20T22:15:29.091Z,5.30
2017-12-20T22:17:56.135Z,5.30
2017-12-20T22:20:23.213Z,5.40
2017-12-20T22:22:51.051Z,5.40
2017-12-20T22:25:18.110Z,5.40
2017-12-20T22:27:45.939Z,5.50
2017-12-20T22:30:13.032Z,5.50
2017-12-20T22:32:40.918Z,5.40
2017-12-20T22:35:07.982Z,5.40
2017-12-20T22:37:35.031Z,5.40
2017-12-20T22:40:02.095Z,5.50
2017-12-20T22:42:29.156Z,5.40
2017-12-20T22:44:56.239Z,5.40
2017-12-20T22:47:23.385Z,5.50
2017-12-20T22:49:50.434Z,5.50
2017-12-20T22:52:17.549Z,5.50
2017-12-20T22:54:44.634Z,5.60
2017-12-20T22:57:12.455Z,5.60
2017-12-20T22:59:39.515Z,5.60
2017-12-20T23:02:06.585Z,5.50
2017-12-20T23:04:33.705Z,5.50
2017-12-20T23:07:00.788Z,5.50
2017-12-20T23:09:27.861Z,5.50
2017-12-20T23:11:55.693Z,5.50
2017-12-20T23:14:22.753Z,5.50
2017-12-20T23:16:49.827Z,5.40
2017-12-20T23:19:17.645Z,5.50
2017-12-20T23:21:44.874Z,5.50
2017-12-20T23:24:11.936Z,5.50
2017-12-20T23:26:39.003Z,5.50
2017-12-20T23:29:06.157Z,5.60
2017-12-20T23:31:33.208Z,5.60
2017-12-20T23:34:00.256Z,5.60
2017-12-20T23:36:27.326Z,5.70
2017-12-20T23:38:54.387Z,5.70
2017-12-20T23:41:21.435Z,5.70
2017-12-20T23:43:48.530Z,5.70
2017-12-20T23:46:15.586Z,5.80
2017-12-20T23:48:42.808Z,5.70
2017-12-20T23:51:09.884Z,5.60
2017-12-20T23:53:36.994Z,5.70
2017-12-20T23:56:04.039Z,5.70
2017-12-20T23:58:31.867Z,5.60
